Sturgeon Bay, WI (54235)

5:53 AM CST on February 23, 2017 (GMT -0600)
Redwood | | Change Station
Active Advisory: Winter Weather Advisory

Elev 676 ft 44.83 °N, 87.39 °W | Updated 2 seconds ago

Overcast
Overcast
35.6 °F
Feels Like 30 °F
N
7.4
Wind Variable Wind from SSE
Gusts 8.1 mph

Today
High -- | Low -- °F
--% Chance of Precip.
Yesterday
High -- | Low -- °F
Precip. -- in
Pressure 29.77 in
Visibility 10.0 miles
Clouds Mostly Cloudy 1500 ft
Overcast 2600 ft
Windchill 30 °F
Dew Point 34 °F
Humidity 93%
Rainfall 0.00 in
Snow Depth Not available.
6:36 AM 5:29 PM
Waning Crescent, 11% visible
METAR KSUE 231056Z AUTO 34011KT 10SM BKN015 OVC026 02/01 A2970 RMK AO2 SLP080 T00220006 FZRANO
Pressure 29.77 in
Visibility 10.0 miles
Clouds Mostly Cloudy 1500 ft
Overcast 2600 ft
Windchill 30 °F
Dew Point 34 °F
Humidity 93%
Rainfall 0.00 in
Snow Depth Not available.
6:36 AM 5:29 PM
Waning Crescent, 11% visible
METAR KSUE 231056Z AUTO 34011KT 10SM BKN015 OVC026 02/01 A2970 RMK AO2 SLP080 T00220006 FZRANO

Get Your Daily Forecast Email!

Thanks for signing up!

Be on the lookout for a verification email in your inbox.

You'll start receiving the daily forecast at 8 AM.

×

10-Day Weather Forecast

Almanac

Astronomy

Feb. 23, 2017 Rise Set
Actual Time
Civil Twilight
Nautical Twilight
Astronomical Twilight
Moon
Length of Visible Light
Length of Day
Tomorrow will be .
, % of the Moon is Illuminated

Today's Extremes

State Highs State Lows

Community

WunderPhotos

Upload Photos

1,962,540 photos uploaded!

WunderBlog® & News

Nearby

Air Quality

  Air Quality AQ Index Pollutant
Not available.

Snow Depth

Station Depth Elevation

Earthquake Activity

City Distance Mag. Time & Date
Minimum magnitude displayed is 2.5.

Coastal Water Temperatures

Place Temperature

Stations

Nearby Weather Stations

Station Location Temp. Windchill Dew Point Humidity Wind Precip. Elev Updated Type
                   

Watches & Warnings

Winter Weather Advisory
Issued: 4:36 AM CST Feb. 23, 2017 – National Weather Service

... Winter Weather Advisory in effect from 3 am to 3 PM CST
Friday...

The National Weather Service in Green Bay has issued a Winter
Weather Advisory for mixed precipitation which is in effect from
3 am to 3 PM CST Friday.

* Timing... look for a mix of snow... sleet... freezing rain and rain
to work into the area overnight and continue into Friday
afternoon.

* Snow accumulations/precip type... 2 to 4 inches of snow is
possible along with up to a tenth of an inch of ice through
Friday afternoon. Additional snow is expected Friday night.

* Main impact... roads are expected to become hazardous for the
Friday morning commute and continue into Friday afternoon.

Precautionary/preparedness actions...

Winter Weather Advisory means that periods of snow, sleet, or
freezing rain will cause travel difficulties. Be prepared for
slippery roads and limited visibilities, and use caution while
driving. The latest Wisconsin Road conditions can be obtained by
calling 511.